Terminal Aerodrome Forecast
Issued by NWS Wilmington, NC

Home | Current Version | Previous Version | Text Only | Print | Product List | Glossary On
Versions: 1 2 3 4 5 6 7 8 9 10 11 12 13 14
000
FTUS42 KILM 301700
TAFFLO
TAF
KFLO 301721Z 3018/3118 09006KT P6SM SCT050
     FM310600 VRB02KT P6SM SCT200
     FM311300 10006KT P6SM FEW050 SCT150=

USA.gov is the U.S. government's official web portal to all federal, state and local government web resources and services.